createdAt,value
2018-01-26T00:02:13.809Z,8.83
2018-01-26T00:04:41.221Z,8.89
2018-01-26T00:07:08.649Z,8.86
2018-01-26T00:09:36.061Z,8.89
2018-01-26T00:12:03.531Z,8.86
2018-01-26T00:14:30.957Z,8.84
2018-01-26T00:16:58.364Z,8.85
2018-01-26T00:19:25.780Z,8.82
2018-01-26T00:21:53.201Z,8.81
2018-01-26T00:24:20.613Z,8.81
2018-01-26T00:26:48.029Z,8.84
2018-01-26T00:29:15.457Z,8.83
2018-01-26T00:31:42.868Z,8.85
2018-01-26T00:34:10.282Z,8.84
2018-01-26T00:36:37.705Z,8.84
2018-01-26T00:39:05.112Z,8.86
2018-01-26T00:41:33.205Z,8.88
2018-01-26T00:44:00.620Z,8.92
2018-01-26T00:46:28.028Z,8.87
2018-01-26T00:48:55.445Z,8.83
2018-01-26T00:51:22.869Z,8.83
2018-01-26T00:53:50.305Z,8.79
2018-01-26T00:56:17.707Z,8.75
2018-01-26T00:58:45.125Z,8.74
2018-01-26T01:01:12.541Z,8.73
2018-01-26T01:03:39.952Z,8.74
2018-01-26T01:06:07.372Z,8.73
2018-01-26T01:08:34.784Z,8.74
2018-01-26T01:11:02.194Z,8.75
2018-01-26T01:13:29.609Z,8.79
2018-01-26T01:15:57.024Z,8.79
2018-01-26T01:18:24.432Z,8.79
2018-01-26T01:20:51.856Z,8.78
2018-01-26T01:23:19.264Z,8.73
2018-01-26T01:25:46.674Z,8.79
2018-01-26T01:28:14.098Z,8.79
2018-01-26T01:30:41.513Z,8.78
2018-01-26T01:33:08.963Z,8.77
2018-01-26T01:35:36.341Z,8.75
2018-01-26T01:38:03.744Z,8.75
2018-01-26T01:40:31.160Z,8.73
2018-01-26T01:42:58.585Z,8.70
2018-01-26T01:45:25.992Z,8.69
2018-01-26T01:47:53.402Z,8.68
2018-01-26T01:50:20.837Z,8.69
2018-01-26T01:52:48.244Z,8.65
2018-01-26T01:55:15.657Z,8.62
2018-01-26T01:57:43.085Z,8.59
2018-01-26T02:00:10.493Z,8.58
2018-01-26T02:02:37.901Z,8.54
2018-01-26T02:05:05.342Z,8.56
2018-01-26T02:07:32.756Z,8.56
2018-01-26T02:10:00.167Z,8.56
2018-01-26T02:12:27.590Z,8.55
2018-01-26T02:14:55.005Z,8.56
2018-01-26T02:17:22.429Z,8.55
2018-01-26T02:19:49.856Z,8.58
2018-01-26T02:22:17.278Z,8.56
2018-01-26T02:24:44.700Z,8.58
2018-01-26T02:27:12.104Z,8.59
2018-01-26T02:29:39.524Z,8.63
2018-01-26T02:32:06.937Z,8.63
2018-01-26T02:34:34.348Z,8.63
2018-01-26T02:37:01.769Z,8.65
2018-01-26T02:39:29.178Z,8.65
2018-01-26T02:41:56.621Z,8.66
2018-01-26T02:44:24.042Z,8.73
2018-01-26T02:46:51.464Z,8.69
2018-01-26T02:49:18.886Z,8.71
2018-01-26T02:51:46.300Z,8.73
2018-01-26T02:54:13.708Z,8.72
2018-01-26T02:56:41.121Z,8.76
2018-01-26T02:59:08.552Z,8.74
2018-01-26T03:01:35.969Z,8.75
2018-01-26T03:04:03.376Z,8.76
2018-01-26T03:06:30.809Z,8.76
2018-01-26T03:08:58.295Z,8.80
2018-01-26T03:11:25.721Z,8.74
2018-01-26T03:13:53.141Z,8.72
2018-01-26T03:16:20.563Z,8.69
2018-01-26T03:18:47.966Z,8.69
2018-01-26T03:21:15.372Z,8.70
2018-01-26T03:23:42.792Z,8.71
2018-01-26T03:26:10.205Z,8.70
2018-01-26T03:28:37.603Z,8.71
2018-01-26T03:31:05.013Z,8.71
2018-01-26T03:33:32.421Z,8.70
2018-01-26T03:35:59.837Z,8.68
2018-01-26T03:38:27.255Z,8.70
2018-01-26T03:40:54.672Z,8.73
2018-01-26T03:43:22.088Z,8.73
2018-01-26T03:45:49.504Z,8.71
2018-01-26T03:48:16.928Z,8.75
2018-01-26T03:50:44.340Z,8.70
2018-01-26T03:53:13.652Z,8.74
2018-01-26T03:55:41.076Z,8.70
2018-01-26T03:58:08.484Z,8.75
2018-01-26T04:00:35.908Z,8.78
2018-01-26T04:03:03.322Z,8.75
2018-01-26T04:05:30.733Z,8.72
2018-01-26T04:07:58.153Z,8.66
2018-01-26T04:10:25.565Z,8.60
2018-01-26T04:12:52.988Z,8.54
2018-01-26T04:15:20.420Z,8.46
2018-01-26T04:17:47.845Z,8.41
2018-01-26T04:20:15.253Z,8.38
2018-01-26T04:22:42.678Z,8.32
2018-01-26T04:25:10.094Z,8.34
2018-01-26T04:27:37.527Z,8.36
2018-01-26T04:30:04.945Z,8.42
2018-01-26T04:32:32.879Z,8.48
2018-01-26T04:35:00.303Z,8.46
2018-01-26T04:37:27.721Z,8.41
2018-01-26T04:39:55.136Z,8.44
2018-01-26T04:42:22.549Z,8.42
2018-01-26T04:44:49.956Z,8.39
2018-01-26T04:47:17.393Z,8.35
2018-01-26T04:49:44.800Z,8.32
2018-01-26T04:52:12.222Z,8.29
2018-01-26T04:54:39.629Z,8.29
2018-01-26T04:57:07.044Z,8.25
2018-01-26T04:59:34.472Z,8.22
2018-01-26T05:02:01.882Z,8.19
2018-01-26T05:04:29.300Z,8.13
2018-01-26T05:06:56.713Z,8.08
2018-01-26T05:09:24.118Z,8.09
2018-01-26T05:11:51.556Z,8.07
2018-01-26T05:14:18.974Z,8.09
2018-01-26T05:16:46.665Z,8.11
2018-01-26T05:19:14.081Z,8.11
2018-01-26T05:21:41.509Z,8.14
2018-01-26T05:24:08.924Z,8.17
2018-01-26T05:26:36.366Z,8.21
2018-01-26T05:29:03.800Z,8.23
2018-01-26T05:31:31.203Z,8.31
2018-01-26T05:33:58.609Z,8.34
2018-01-26T05:36:26.032Z,8.34
2018-01-26T05:38:53.442Z,8.32
2018-01-26T05:41:20.878Z,8.31
2018-01-26T05:43:48.278Z,8.34
2018-01-26T05:46:15.694Z,8.34
2018-01-26T05:48:43.107Z,8.34
2018-01-26T05:51:10.523Z,8.34
2018-01-26T05:53:37.952Z,8.35
2018-01-26T05:56:05.353Z,8.37
2018-01-26T05:58:32.774Z,8.34
2018-01-26T06:01:00.212Z,8.32
2018-01-26T06:03:27.614Z,8.34
2018-01-26T06:05:55.032Z,8.35
2018-01-26T06:08:22.433Z,8.35
2018-01-26T06:10:49.842Z,8.36
2018-01-26T06:13:17.252Z,8.35
2018-01-26T06:15:44.670Z,8.37
2018-01-26T06:18:12.091Z,8.35
2018-01-26T06:20:39.508Z,8.35
2018-01-26T06:23:06.917Z,8.29
2018-01-26T06:25:34.332Z,8.32
2018-01-26T06:28:01.737Z,8.30
2018-01-26T06:30:29.157Z,8.30
2018-01-26T06:32:56.568Z,8.35
2018-01-26T06:35:23.981Z,8.33
2018-01-26T06:37:51.401Z,8.31
2018-01-26T06:40:18.808Z,8.24
2018-01-26T06:42:46.232Z,8.21
2018-01-26T06:45:13.641Z,8.20
2018-01-26T06:47:41.068Z,8.19
2018-01-26T06:50:08.508Z,8.22
2018-01-26T06:52:35.958Z,8.26
2018-01-26T06:55:03.429Z,8.25
2018-01-26T06:57:30.893Z,8.20
2018-01-26T06:59:58.356Z,8.17
2018-01-26T07:02:25.760Z,8.11
2018-01-26T07:04:53.185Z,8.12
2018-01-26T07:07:20.606Z,8.11
2018-01-26T07:09:48.013Z,8.13
2018-01-26T07:12:15.425Z,8.13
2018-01-26T07:14:42.837Z,8.14
2018-01-26T07:17:10.265Z,8.15
2018-01-26T07:19:37.676Z,8.20
2018-01-26T07:22:05.085Z,8.21
2018-01-26T07:24:32.502Z,8.25
2018-01-26T07:26:59.985Z,8.29
2018-01-26T07:29:27.482Z,8.32
2018-01-26T07:31:54.909Z,8.33
2018-01-26T07:34:22.324Z,8.40
2018-01-26T07:36:49.737Z,8.36
2018-01-26T07:39:17.164Z,8.37
2018-01-26T07:41:44.581Z,8.37
2018-01-26T07:44:12.014Z,8.39
2018-01-26T07:46:39.420Z,8.43
2018-01-26T07:49:06.845Z,8.41
2018-01-26T07:51:34.266Z,8.41
2018-01-26T07:54:01.693Z,8.42
2018-01-26T07:56:29.122Z,8.40
2018-01-26T07:58:56.541Z,8.37
2018-01-26T08:01:24.831Z,8.41
2018-01-26T08:03:52.272Z,8.41
2018-01-26T08:06:19.672Z,8.45
2018-01-26T08:08:47.132Z,8.49
2018-01-26T08:11:14.550Z,8.53
2018-01-26T08:13:41.974Z,8.55
2018-01-26T08:16:09.537Z,8.62
2018-01-26T08:18:36.950Z,8.67
2018-01-26T08:21:04.560Z,8.70
2018-01-26T08:23:31.974Z,8.75
2018-01-26T08:25:59.400Z,8.78
2018-01-26T08:28:26.857Z,8.80
2018-01-26T08:30:54.259Z,8.80
2018-01-26T08:33:21.719Z,8.84
2018-01-26T08:35:49.123Z,8.87
2018-01-26T08:38:16.534Z,8.92
2018-01-26T08:40:43.952Z,9.02
2018-01-26T08:43:11.406Z,9.08
2018-01-26T08:45:44.523Z,9.09
2018-01-26T08:48:11.928Z,9.14
2018-01-26T08:50:39.343Z,9.18
2018-01-26T08:53:06.764Z,9.22
2018-01-26T08:55:34.176Z,9.27
2018-01-26T08:58:01.600Z,9.36
2018-01-26T09:00:29.012Z,9.42
2018-01-26T09:02:56.450Z,9.42
2018-01-26T09:05:23.853Z,9.51
2018-01-26T09:07:51.277Z,9.54
2018-01-26T09:10:18.693Z,9.52
2018-01-26T09:12:46.111Z,9.56
2018-01-26T09:15:13.526Z,9.58
2018-01-26T09:17:40.953Z,9.56
2018-01-26T09:20:08.349Z,9.55
2018-01-26T09:22:35.784Z,9.57
2018-01-26T09:25:03.206Z,9.54
2018-01-26T09:27:30.636Z,9.54
2018-01-26T09:29:58.052Z,9.57
2018-01-26T09:32:25.457Z,9.59
2018-01-26T09:34:52.877Z,9.58
2018-01-26T09:37:20.293Z,9.63
2018-01-26T09:39:47.700Z,9.65
2018-01-26T09:42:15.109Z,9.66
2018-01-26T09:44:42.512Z,9.73
2018-01-26T09:47:09.940Z,9.81
2018-01-26T09:49:37.353Z,9.79
2018-01-26T09:52:04.761Z,9.77
2018-01-26T09:54:32.202Z,9.75
2018-01-26T09:56:59.609Z,9.76
2018-01-26T09:59:27.056Z,9.82
2018-01-26T10:01:54.460Z,9.84
2018-01-26T10:04:21.867Z,9.91
2018-01-26T10:06:49.276Z,9.95
2018-01-26T10:09:16.693Z,9.96
2018-01-26T10:11:44.101Z,10.02
2018-01-26T10:14:11.536Z,10.02
2018-01-26T10:16:38.941Z,10.07
2018-01-26T10:19:06.357Z,10.05
2018-01-26T10:21:33.784Z,10.07
2018-01-26T10:24:01.203Z,10.12
2018-01-26T10:26:28.616Z,10.16
2018-01-26T10:28:56.030Z,10.23
2018-01-26T10:31:23.446Z,10.31
2018-01-26T10:33:50.873Z,10.33
2018-01-26T10:36:18.288Z,10.38
2018-01-26T10:38:45.704Z,10.45
2018-01-26T10:41:13.128Z,10.55
2018-01-26T10:43:42.463Z,10.58
2018-01-26T10:46:09.959Z,10.61
2018-01-26T10:48:47.869Z,10.63
2018-01-26T10:51:15.299Z,10.68
2018-01-26T10:53:42.714Z,10.64
2018-01-26T10:56:10.149Z,10.66
2018-01-26T10:58:37.569Z,10.70
2018-01-26T11:01:04.986Z,10.72
2018-01-26T11:03:32.423Z,10.73
2018-01-26T11:05:59.825Z,10.68
2018-01-26T11:08:27.249Z,10.65
2018-01-26T11:10:56.583Z,10.61
2018-01-26T11:13:23.985Z,10.58
2018-01-26T11:15:51.411Z,10.55
2018-01-26T11:18:18.816Z,10.57
2018-01-26T11:20:46.236Z,10.58
2018-01-26T11:23:13.656Z,10.63
2018-01-26T11:25:41.090Z,10.59
2018-01-26T11:28:08.509Z,10.54
2018-01-26T11:30:35.925Z,10.48
2018-01-26T11:33:03.341Z,10.42
2018-01-26T11:35:30.765Z,10.39
2018-01-26T11:37:58.184Z,10.48
2018-01-26T11:40:25.613Z,10.44
2018-01-26T11:42:53.024Z,10.48
2018-01-26T11:45:20.433Z,10.53
2018-01-26T11:47:47.861Z,10.56
2018-01-26T11:50:15.277Z,10.67
2018-01-26T11:52:42.703Z,10.68
2018-01-26T11:55:10.116Z,10.76
2018-01-26T11:57:37.533Z,10.74
2018-01-26T12:00:04.952Z,10.68
2018-01-26T12:02:32.381Z,10.69
2018-01-26T12:04:59.808Z,10.67
2018-01-26T12:07:27.233Z,10.54
2018-01-26T12:09:54.653Z,10.60
2018-01-26T12:12:22.128Z,10.59
2018-01-26T12:14:49.557Z,10.57
2018-01-26T12:17:16.997Z,10.59
2018-01-26T12:19:44.419Z,10.50
2018-01-26T12:22:11.940Z,10.55
2018-01-26T12:24:39.353Z,10.55
2018-01-26T12:27:06.781Z,10.51
2018-01-26T12:29:34.245Z,10.58
2018-01-26T12:32:01.661Z,10.68
2018-01-26T12:34:29.396Z,10.70
2018-01-26T12:36:56.834Z,10.75
2018-01-26T12:39:24.246Z,10.75
2018-01-26T12:41:51.678Z,10.79
2018-01-26T12:44:19.088Z,10.71
2018-01-26T12:46:46.538Z,10.71
2018-01-26T12:49:13.933Z,10.76
2018-01-26T12:51:41.340Z,10.79
2018-01-26T12:54:08.766Z,10.74
2018-01-26T12:56:36.178Z,10.79
2018-01-26T12:59:03.597Z,10.64
2018-01-26T13:01:31.021Z,10.65
2018-01-26T13:03:58.461Z,10.62
2018-01-26T13:06:25.885Z,10.61
2018-01-26T13:08:53.292Z,10.73
2018-01-26T13:11:20.712Z,10.77
2018-01-26T13:13:48.124Z,10.72
2018-01-26T13:16:15.566Z,10.80
2018-01-26T13:18:42.969Z,10.78
2018-01-26T13:21:10.385Z,10.82
2018-01-26T13:23:37.813Z,10.84
2018-01-26T13:26:05.221Z,10.96
2018-01-26T13:28:32.667Z,11.06
2018-01-26T13:31:00.076Z,11.07
2018-01-26T13:33:27.489Z,11.01
2018-01-26T13:35:54.905Z,10.92
2018-01-26T13:38:22.369Z,10.96
2018-01-26T13:40:49.749Z,11.01
2018-01-26T13:43:17.194Z,10.93
2018-01-26T13:45:45.208Z,10.77
2018-01-26T13:48:13.768Z,10.50
2018-01-26T13:50:42.340Z,10.62
2018-01-26T13:53:09.771Z,10.56
2018-01-26T13:55:37.182Z,10.56
2018-01-26T13:58:04.609Z,10.54
2018-01-26T14:00:32.168Z,10.58
2018-01-26T14:02:59.587Z,10.56
2018-01-26T14:05:27.093Z,10.57
2018-01-26T14:07:54.676Z,10.49
2018-01-26T14:10:22.056Z,10.49
2018-01-26T14:12:49.482Z,10.36
2018-01-26T14:15:16.933Z,10.26
2018-01-26T14:17:44.356Z,10.19
2018-01-26T14:20:11.784Z,10.23
2018-01-26T14:22:39.221Z,10.21
2018-01-26T14:25:06.637Z,10.17
2018-01-26T14:27:34.056Z,10.22
2018-01-26T14:30:01.496Z,10.25
2018-01-26T14:32:28.955Z,10.34
2018-01-26T14:34:56.407Z,10.34
2018-01-26T14:37:23.880Z,10.33
2018-01-26T14:39:51.249Z,10.34
2018-01-26T14:42:18.684Z,10.29
2018-01-26T14:44:46.118Z,10.28
2018-01-26T14:47:13.534Z,10.24
2018-01-26T14:49:41.387Z,10.27
2018-01-26T14:52:08.825Z,10.18
2018-01-26T14:54:36.271Z,10.13
2018-01-26T14:57:03.689Z,10.11
2018-01-26T14:59:31.141Z,10.04
2018-01-26T15:01:58.533Z,10.04
2018-01-26T15:04:25.941Z,10.00
2018-01-26T15:06:53.361Z,9.92
2018-01-26T15:09:20.770Z,9.95
2018-01-26T15:11:48.193Z,9.92
2018-01-26T15:14:15.609Z,9.93
2018-01-26T15:16:43.024Z,9.86
2018-01-26T15:19:10.477Z,9.84
2018-01-26T15:21:37.889Z,9.87
2018-01-26T15:24:05.296Z,9.87
2018-01-26T15:26:32.758Z,9.82
2018-01-26T15:29:00.165Z,9.79
2018-01-26T15:31:27.927Z,9.77
2018-01-26T15:33:56.133Z,9.70
2018-01-26T15:36:23.544Z,9.70
2018-01-26T15:38:50.955Z,9.61
2018-01-26T15:41:18.389Z,9.62
2018-01-26T15:43:45.784Z,9.61
2018-01-26T15:46:13.203Z,9.59
2018-01-26T15:48:40.621Z,9.54
2018-01-26T15:51:08.024Z,9.43
2018-01-26T15:53:35.465Z,9.38
2018-01-26T15:56:02.889Z,9.32
2018-01-26T15:58:37.048Z,9.23
2018-01-26T16:01:04.468Z,9.15
2018-01-26T16:03:31.869Z,9.02
2018-01-26T16:05:59.284Z,8.96
2018-01-26T16:08:26.702Z,8.94
2018-01-26T16:10:54.135Z,8.88
2018-01-26T16:13:29.383Z,8.82
2018-01-26T16:16:03.106Z,8.78
2018-01-26T16:18:30.521Z,8.72
2018-01-26T16:21:02.752Z,8.66
2018-01-26T16:23:30.172Z,8.62
2018-01-26T16:25:57.585Z,8.57
2018-01-26T16:28:25.020Z,8.52
2018-01-26T16:30:52.445Z,8.46
2018-01-26T16:33:19.869Z,8.38
2018-01-26T16:35:47.288Z,8.25
2018-01-26T16:38:14.717Z,8.23
2018-01-26T16:40:42.144Z,8.21
2018-01-26T16:43:09.570Z,8.16
2018-01-26T16:45:36.993Z,8.12
2018-01-26T16:48:04.411Z,8.10
2018-01-26T16:50:31.829Z,8.06
2018-01-26T16:52:59.264Z,8.03
2018-01-26T16:55:26.673Z,8.02
2018-01-26T16:57:54.080Z,7.92
2018-01-26T17:00:21.500Z,7.91
2018-01-26T17:02:48.924Z,7.85
2018-01-26T17:05:16.352Z,7.86
2018-01-26T17:07:43.764Z,7.80
2018-01-26T17:10:11.235Z,7.75
2018-01-26T17:12:38.613Z,7.71
2018-01-26T17:15:06.028Z,7.69
2018-01-26T17:17:33.454Z,7.74
2018-01-26T17:20:00.869Z,7.71
2018-01-26T17:22:28.297Z,7.73
2018-01-26T17:24:55.713Z,7.71
2018-01-26T17:27:23.120Z,7.66
2018-01-26T17:29:50.539Z,7.63
2018-01-26T17:32:17.954Z,7.72
2018-01-26T17:34:45.377Z,7.78
2018-01-26T17:37:12.789Z,7.78
2018-01-26T17:39:40.194Z,7.76
2018-01-26T17:42:07.646Z,7.71
2018-01-26T17:44:35.049Z,7.69
2018-01-26T17:47:02.496Z,7.67
2018-01-26T17:49:29.904Z,7.67
2018-01-26T17:51:57.322Z,7.65
2018-01-26T17:54:24.744Z,7.64
2018-01-26T17:56:52.165Z,7.60
2018-01-26T17:59:19.618Z,7.58
2018-01-26T18:01:47.020Z,7.52
2018-01-26T18:04:14.462Z,7.47
2018-01-26T18:06:41.892Z,7.55
2018-01-26T18:09:09.288Z,7.50
2018-01-26T18:14:10.489Z,7.38
2018-01-26T18:16:37.905Z,7.41
2018-01-26T18:19:05.336Z,7.31
2018-01-26T18:21:32.783Z,7.30
2018-01-26T18:24:00.192Z,7.25
2018-01-26T18:26:27.624Z,7.27
2018-01-26T18:28:55.041Z,7.24
2018-01-26T18:31:22.474Z,7.22
2018-01-26T18:33:49.881Z,7.18
2018-01-26T18:36:17.303Z,7.19
2018-01-26T18:38:44.713Z,7.23
2018-01-26T18:41:12.130Z,7.26
2018-01-26T18:43:39.583Z,7.22
2018-01-26T18:46:06.984Z,7.16
2018-01-26T18:48:34.393Z,7.08
2018-01-26T18:51:01.824Z,7.03
2018-01-26T18:53:29.232Z,6.96
2018-01-26T18:55:56.660Z,6.92
2018-01-26T18:58:24.064Z,6.85
2018-01-26T19:00:51.469Z,6.78
2018-01-26T19:03:18.889Z,6.71
2018-01-26T19:05:46.294Z,6.64
2018-01-26T19:08:13.721Z,6.56
2018-01-26T19:10:41.141Z,6.50
2018-01-26T19:13:09.353Z,6.45
2018-01-26T19:15:36.769Z,6.45
2018-01-26T19:18:04.190Z,6.38
2018-01-26T19:20:31.613Z,6.31
2018-01-26T19:22:59.021Z,6.25
2018-01-26T19:25:26.437Z,6.19
2018-01-26T19:27:54.068Z,6.15
2018-01-26T19:30:21.477Z,6.13
2018-01-26T19:32:48.909Z,6.12
2018-01-26T19:35:16.312Z,6.23
2018-01-26T19:37:43.731Z,6.25
2018-01-26T19:40:11.160Z,6.21
2018-01-26T19:42:38.581Z,6.20
2018-01-26T19:45:06.005Z,6.13
2018-01-26T19:47:33.414Z,6.08
2018-01-26T19:50:00.902Z,6.03
2018-01-26T19:52:28.310Z,6.02
2018-01-26T19:54:55.737Z,6.03
2018-01-26T19:57:23.197Z,5.94
2018-01-26T19:59:50.617Z,6.05
2018-01-26T20:02:18.037Z,5.99
2018-01-26T20:04:51.085Z,5.96
2018-01-26T20:07:29.116Z,6.02
2018-01-26T20:09:56.537Z,6.11
2018-01-26T20:12:23.960Z,6.17
2018-01-26T20:14:51.396Z,6.24
2018-01-26T20:17:18.843Z,6.25
2018-01-26T20:19:46.291Z,6.25
2018-01-26T20:22:13.692Z,6.24
2018-01-26T20:24:41.097Z,6.23
2018-01-26T20:27:08.513Z,6.26
2018-01-26T20:29:35.930Z,6.29
2018-01-26T20:32:03.366Z,6.29
2018-01-26T20:34:30.774Z,6.32
2018-01-26T20:36:58.193Z,6.35
2018-01-26T20:39:25.612Z,6.38
2018-01-26T20:41:53.031Z,6.37
2018-01-26T20:44:20.457Z,6.41
2018-01-26T20:46:47.885Z,6.44
2018-01-26T20:49:15.296Z,6.47
2018-01-26T20:51:42.731Z,6.49
2018-01-26T20:54:10.129Z,6.46
2018-01-26T20:56:37.553Z,6.44
2018-01-26T20:59:04.981Z,6.40
2018-01-26T21:01:32.388Z,6.34
2018-01-26T21:03:59.815Z,6.26
2018-01-26T21:06:27.214Z,6.16
2018-01-26T21:08:54.633Z,6.09
2018-01-26T21:11:22.045Z,6.02
2018-01-26T21:13:49.448Z,6.02
2018-01-26T21:16:16.876Z,5.95
2018-01-26T21:18:44.301Z,5.92
2018-01-26T21:21:11.710Z,5.96
2018-01-26T21:23:39.150Z,6.01
2018-01-26T21:26:06.561Z,6.06
2018-01-26T21:28:33.965Z,6.10
2018-01-26T21:31:01.386Z,6.10
2018-01-26T21:33:28.797Z,6.11
2018-01-26T21:35:56.212Z,6.09
2018-01-26T21:38:23.625Z,6.06
2018-01-26T21:40:51.028Z,6.05
2018-01-26T21:43:18.441Z,5.95
2018-01-26T21:45:45.844Z,5.94
2018-01-26T21:48:13.264Z,5.82
2018-01-26T21:50:40.729Z,5.63
2018-01-26T21:53:08.129Z,5.53
2018-01-26T21:55:35.545Z,5.50
2018-01-26T21:58:02.953Z,5.44
2018-01-26T22:00:30.384Z,5.38
2018-01-26T22:02:57.791Z,5.29
2018-01-26T22:05:25.210Z,5.25
2018-01-26T22:07:52.641Z,5.25
2018-01-26T22:10:20.036Z,5.24
2018-01-26T22:12:47.469Z,5.15
2018-01-26T22:15:14.881Z,5.13
2018-01-26T22:17:42.285Z,5.14
2018-01-26T22:20:09.704Z,5.14
2018-01-26T22:22:37.117Z,5.12
2018-01-26T22:25:04.545Z,5.10
2018-01-26T22:27:31.953Z,4.98
2018-01-26T22:29:59.374Z,4.93
2018-01-26T22:32:26.789Z,4.94
2018-01-26T22:34:54.192Z,5.00
2018-01-26T22:37:21.610Z,5.04
2018-01-26T22:39:49.013Z,5.04
2018-01-26T22:42:16.424Z,4.98
2018-01-26T22:44:43.844Z,4.96
2018-01-26T22:47:11.292Z,4.93
2018-01-26T22:49:38.680Z,4.98
2018-01-26T22:52:06.088Z,4.99
2018-01-26T22:54:33.505Z,4.93
2018-01-26T22:57:00.956Z,4.88
2018-01-26T22:59:28.391Z,4.85
2018-01-26T23:01:55.788Z,4.83
2018-01-26T23:04:23.205Z,4.81
2018-01-26T23:06:50.632Z,4.87
2018-01-26T23:09:18.053Z,4.86
2018-01-26T23:11:45.456Z,4.82
2018-01-26T23:14:12.872Z,4.87
2018-01-26T23:16:40.278Z,4.99
2018-01-26T23:19:07.713Z,5.13
2018-01-26T23:21:35.125Z,5.38
2018-01-26T23:24:02.537Z,5.49
2018-01-26T23:26:29.944Z,5.60
2018-01-26T23:28:57.356Z,5.67
2018-01-26T23:31:24.777Z,5.78
2018-01-26T23:33:52.186Z,5.81
2018-01-26T23:36:19.597Z,5.81
2018-01-26T23:38:47.009Z,5.83
2018-01-26T23:41:14.426Z,5.83
2018-01-26T23:43:41.856Z,5.91
2018-01-26T23:46:09.259Z,5.93
2018-01-26T23:48:36.664Z,5.91
2018-01-26T23:51:04.080Z,5.95
2018-01-26T23:53:31.493Z,5.89
2018-01-26T23:55:58.967Z,5.82
2018-01-26T23:58:26.333Z,5.90
